NCAR-RAP Real-Time Weather Data

Output produced by METARs form (01 December 2020  17:56 UTC)
found at http://weather.rap.ucar.edu/surface/
 
KPHL 011654Z 26014KT 10SM SCT026 OVC030 07/01 A2961 RMK AO2 SLP027 T00670006
KPHL 011554Z 23015KT 10SM SCT026 BKN033 OVC042 07/01 A2961 RMK AO2 SLP026 T00720011 $
KPHL 011454Z 24017KT 10SM SCT025 BKN030 08/02 A2960 RMK AO2 SLP022 T00780017 51018
KPHL 011354Z 24016KT 10SM SCT020 SCT095 08/03 A2958 RMK AO2 SLP016 T00830033
KPHL 011254Z 22010KT 10SM SCT039 SCT095 08/04 A2956 RMK AO2 SLP011 T00780039
KPHL 011154Z 22006KT 10SM FEW041 SCT095 SCT220 08/03 A2954 RMK AO2 SLP004 70092 T00780033 10106 20072 53008
KPHL 011054Z 19007KT 10SM FEW037 FEW060 SCT220 08/04 A2953 RMK AO2 SLP998 T00780039 $
KPHL 010954Z 25006KT 10SM SCT036 BKN220 08/04 A2952 RMK AO2 SLP996 T00780039 $
KPHL 010854Z 26007KT 10SM FEW040 OVC220 08/05 A2952 RMK AO2 SLP996 T00830050 51013 $
KPHL 010754Z 25007KT 10SM SCT022 OVC200 09/05 A2951 RMK AO2 SLP994 T00940050 $
KPHL 010654Z 27009KT 10SM FEW023 OVC035 11/07 A2951 RMK AO2 SLP991 T01060072 $
KPHL 010554Z 24006KT 10SM CLR 10/08 A2948 RMK AO2 SLP984 T01000083 10161 20100 51011 $
KPHL 010454Z 25005KT 10SM FEW044 12/09 A2948 RMK AO2 SLP981 T01170089 401940067 $
KPHL 010402Z 24010KT 10SM SCT022 BKN050 13/10 A2948 RMK AO2 T01280100 $
KPHL 010354Z 23010KT 10SM BKN025 BKN060 13/11 A2948 RMK AO2 SLP981 T01280106 $
KPHL 010349Z 23010KT 10SM BKN025 BKN060 13/11 A2947 RMK AO2 $